sensor_id;sensor_type;location;lat;lon;timestamp;pressure;altitude;pressure_sealevel;temperature;humidity
70909;BME280;58554;52.006;5.926;2023-06-14T00:01:56;100703.34;;;22.52;29.99
70909;BME280;58554;52.006;5.926;2023-06-14T00:04:22;100710.09;;;22.48;30.06
70909;BME280;58554;52.006;5.926;2023-06-14T00:06:49;100711.91;;;22.48;30.15
70909;BME280;58554;52.006;5.926;2023-06-14T00:09:18;100705.53;;;22.49;30.19
70909;BME280;58554;52.006;5.926;2023-06-14T00:11:44;100714.97;;;22.44;30.24
70909;BME280;58554;52.006;5.926;2023-06-14T00:14:11;100711.06;;;22.39;30.47
70909;BME280;58554;52.006;5.926;2023-06-14T00:16:37;100711.41;;;22.36;30.69
70909;BME280;58554;52.006;5.926;2023-06-14T00:19:04;100716.97;;;22.34;30.32
70909;BME280;58554;52.006;5.926;2023-06-14T00:21:31;100709.69;;;22.27;30.55
70909;BME280;58554;52.006;5.926;2023-06-14T00:23:58;100710.56;;;22.19;30.62
70909;BME280;58554;52.006;5.926;2023-06-14T00:26:27;100703.97;;;22.13;31.13
70909;BME280;58554;52.006;5.926;2023-06-14T00:28:54;100715.06;;;22.10;30.80
70909;BME280;58554;52.006;5.926;2023-06-14T00:31:20;100712.03;;;22.05;31.14
70909;BME280;58554;52.006;5.926;2023-06-14T00:33:47;100707.41;;;21.97;30.94
70909;BME280;58554;52.006;5.926;2023-06-14T00:36:14;100717.69;;;21.94;31.05
70909;BME280;58554;52.006;5.926;2023-06-14T00:38:40;100715.16;;;21.92;31.06
70909;BME280;58554;52.006;5.926;2023-06-14T00:41:07;100725.09;;;21.92;31.37
70909;BME280;58554;52.006;5.926;2023-06-14T00:43:36;100717.50;;;21.95;31.44
70909;BME280;58554;52.006;5.926;2023-06-14T00:46:02;100711.28;;;21.95;31.49
70909;BME280;58554;52.006;5.926;2023-06-14T00:48:29;100716.34;;;21.90;31.64
70909;BME280;58554;52.006;5.926;2023-06-14T00:50:58;100721.00;;;21.79;31.53
70909;BME280;58554;52.006;5.926;2023-06-14T00:53:29;100722.66;;;21.72;31.84
70909;BME280;58554;52.006;5.926;2023-06-14T00:55:56;100723.97;;;21.68;31.83
70909;BME280;58554;52.006;5.926;2023-06-14T00:58:23;100721.44;;;21.67;32.09
70909;BME280;58554;52.006;5.926;2023-06-14T01:00:53;100723.81;;;21.70;31.92
70909;BME280;58554;52.006;5.926;2023-06-14T01:03:20;100726.66;;;21.68;31.93
70909;BME280;58554;52.006;5.926;2023-06-14T01:05:46;100733.56;;;21.71;32.29
70909;BME280;58554;52.006;5.926;2023-06-14T01:08:21;100724.34;;;21.73;32.47
70909;BME280;58554;52.006;5.926;2023-06-14T01:11:02;100731.41;;;21.74;32.58
70909;BME280;58554;52.006;5.926;2023-06-14T01:13:38;100730.41;;;21.75;32.09
70909;BME280;58554;52.006;5.926;2023-06-14T01:16:11;100728.88;;;21.73;32.46
70909;BME280;58554;52.006;5.926;2023-06-14T01:18:39;100730.56;;;21.74;32.25
70909;BME280;58554;52.006;5.926;2023-06-14T01:21:05;100719.94;;;21.72;32.62
70909;BME280;58554;52.006;5.926;2023-06-14T01:23:34;100724.81;;;21.69;32.44
70909;BME280;58554;52.006;5.926;2023-06-14T01:26:01;100714.53;;;21.64;32.39
70909;BME280;58554;52.006;5.926;2023-06-14T01:28:28;100719.22;;;21.62;32.69
70909;BME280;58554;52.006;5.926;2023-06-14T01:30:55;100722.94;;;21.61;32.52
70909;BME280;58554;52.006;5.926;2023-06-14T01:33:24;100729.31;;;21.60;32.65
70909;BME280;58554;52.006;5.926;2023-06-14T01:35:55;100728.81;;;21.56;32.71
70909;BME280;58554;52.006;5.926;2023-06-14T01:38:24;100725.75;;;21.51;32.79
70909;BME280;58554;52.006;5.926;2023-06-14T01:40:57;100728.25;;;21.45;33.08
70909;BME280;58554;52.006;5.926;2023-06-14T01:43:26;100727.03;;;21.39;32.66
70909;BME280;58554;52.006;5.926;2023-06-14T01:45:56;100731.56;;;21.38;33.11
70909;BME280;58554;52.006;5.926;2023-06-14T01:48:25;100722.66;;;21.38;33.08
70909;BME280;58554;52.006;5.926;2023-06-14T01:50:52;100724.66;;;21.36;33.12
70909;BME280;58554;52.006;5.926;2023-06-14T01:53:19;100732.88;;;21.34;32.79
70909;BME280;58554;52.006;5.926;2023-06-14T01:55:46;100725.47;;;21.28;32.89
70909;BME280;58554;52.006;5.926;2023-06-14T01:58:15;100719.16;;;21.19;33.20
70909;BME280;58554;52.006;5.926;2023-06-14T02:00:42;100719.63;;;21.15;33.44
70909;BME280;58554;52.006;5.926;2023-06-14T02:03:08;100716.56;;;21.10;33.40
70909;BME280;58554;52.006;5.926;2023-06-14T02:05:35;100720.91;;;21.02;33.37
70909;BME280;58554;52.006;5.926;2023-06-14T02:08:02;100714.66;;;21.02;33.52
70909;BME280;58554;52.006;5.926;2023-06-14T02:10:28;100717.66;;;20.99;33.45
70909;BME280;58554;52.006;5.926;2023-06-14T02:12:55;100721.81;;;20.93;33.63
70909;BME280;58554;52.006;5.926;2023-06-14T02:15:24;100717.59;;;20.91;33.72
70909;BME280;58554;52.006;5.926;2023-06-14T02:17:50;100717.06;;;20.87;33.89
70909;BME280;58554;52.006;5.926;2023-06-14T02:20:17;100710.31;;;20.83;33.75
70909;BME280;58554;52.006;5.926;2023-06-14T02:22:44;100719.41;;;20.82;34.17
70909;BME280;58554;52.006;5.926;2023-06-14T02:25:11;100713.47;;;20.78;33.91
70909;BME280;58554;52.006;5.926;2023-06-14T02:27:37;100728.06;;;20.76;34.23
70909;BME280;58554;52.006;5.926;2023-06-14T02:30:06;100720.31;;;20.73;33.86
70909;BME280;58554;52.006;5.926;2023-06-14T02:32:36;100717.41;;;20.66;34.02
70909;BME280;58554;52.006;5.926;2023-06-14T02:35:03;100719.41;;;20.64;34.01
70909;BME280;58554;52.006;5.926;2023-06-14T02:37:30;100720.41;;;20.63;34.21
70909;BME280;58554;52.006;5.926;2023-06-14T02:39:56;100719.03;;;20.59;34.39
70909;BME280;58554;52.006;5.926;2023-06-14T02:42:23;100720.88;;;20.58;34.47
70909;BME280;58554;52.006;5.926;2023-06-14T02:44:49;100723.41;;;20.60;34.57
70909;BME280;58554;52.006;5.926;2023-06-14T02:47:16;100719.34;;;20.56;34.51
70909;BME280;58554;52.006;5.926;2023-06-14T02:49:45;100727.56;;;20.54;34.38
70909;BME280;58554;52.006;5.926;2023-06-14T02:52:12;100729.03;;;20.49;34.76
70909;BME280;58554;52.006;5.926;2023-06-14T02:54:39;100722.13;;;20.46;34.42
70909;BME280;58554;52.006;5.926;2023-06-14T02:57:06;100735.69;;;20.45;34.57
70909;BME280;58554;52.006;5.926;2023-06-14T02:59:32;100738.53;;;20.43;34.66
70909;BME280;58554;52.006;5.926;2023-06-14T03:01:59;100728.78;;;20.42;34.75
70909;BME280;58554;52.006;5.926;2023-06-14T03:04:25;100736.41;;;20.37;34.74
70909;BME280;58554;52.006;5.926;2023-06-14T03:06:54;100740.56;;;20.31;34.96
70909;BME280;58554;52.006;5.926;2023-06-14T03:09:21;100743.41;;;20.30;34.97
70909;BME280;58554;52.006;5.926;2023-06-14T03:11:48;100739.00;;;20.29;34.89
70909;BME280;58554;52.006;5.926;2023-06-14T03:14:14;100742.72;;;20.28;34.96
70909;BME280;58554;52.006;5.926;2023-06-14T03:16:41;100747.53;;;20.24;35.18
70909;BME280;58554;52.006;5.926;2023-06-14T03:19:07;100743.47;;;20.20;35.12
70909;BME280;58554;52.006;5.926;2023-06-14T03:21:33;100749.56;;;20.12;35.09
70909;BME280;58554;52.006;5.926;2023-06-14T03:24:03;100752.47;;;20.01;35.24
70909;BME280;58554;52.006;5.926;2023-06-14T03:26:30;100751.69;;;19.91;35.44
70909;BME280;58554;52.006;5.926;2023-06-14T03:28:56;100764.16;;;19.82;35.35
70909;BME280;58554;52.006;5.926;2023-06-14T03:31:22;100759.66;;;19.73;35.43
70909;BME280;58554;52.006;5.926;2023-06-14T03:33:49;100764.94;;;19.65;35.58
70909;BME280;58554;52.006;5.926;2023-06-14T03:36:15;100765.22;;;19.52;35.70
70909;BME280;58554;52.006;5.926;2023-06-14T03:38:42;100763.00;;;19.37;35.82
70909;BME280;58554;52.006;5.926;2023-06-14T03:41:11;100767.28;;;19.20;36.03
70909;BME280;58554;52.006;5.926;2023-06-14T03:43:37;100771.97;;;19.09;36.27
70909;BME280;58554;52.006;5.926;2023-06-14T03:46:04;100766.75;;;18.97;36.51
70909;BME280;58554;52.006;5.926;2023-06-14T03:48:30;100775.66;;;18.88;36.39
70909;BME280;58554;52.006;5.926;2023-06-14T03:50:57;100770.28;;;18.78;36.54
70909;BME280;58554;52.006;5.926;2023-06-14T03:53:23;100774.63;;;18.70;36.78
70909;BME280;58554;52.006;5.926;2023-06-14T03:55:50;100773.78;;;18.59;36.77
70909;BME280;58554;52.006;5.926;2023-06-14T03:58:19;100775.59;;;18.49;37.08
70909;BME280;58554;52.006;5.926;2023-06-14T04:00:46;100784.31;;;18.41;37.17
70909;BME280;58554;52.006;5.926;2023-06-14T04:03:12;100787.72;;;18.34;37.21
70909;BME280;58554;52.006;5.926;2023-06-14T04:05:39;100791.91;;;18.27;37.37
70909;BME280;58554;52.006;5.926;2023-06-14T04:08:05;100789.66;;;18.22;37.54
70909;BME280;58554;52.006;5.926;2023-06-14T04:10:32;100793.88;;;18.15;37.59
70909;BME280;58554;52.006;5.926;2023-06-14T04:12:58;100791.75;;;18.09;37.90
70909;BME280;58554;52.006;5.926;2023-06-14T04:15:27;100794.78;;;18.04;37.93
70909;BME280;58554;52.006;5.926;2023-06-14T04:17:54;100799.59;;;18.00;37.99
70909;BME280;58554;52.006;5.926;2023-06-14T04:20:21;100805.34;;;17.96;37.92
70909;BME280;58554;52.006;5.926;2023-06-14T04:22:47;100809.00;;;17.95;38.21
70909;BME280;58554;52.006;5.926;2023-06-14T04:25:14;100812.94;;;17.91;38.21
70909;BME280;58554;52.006;5.926;2023-06-14T04:27:40;100814.88;;;17.89;38.45
70909;BME280;58554;52.006;5.926;2023-06-14T04:30:08;100816.13;;;17.85;38.52
70909;BME280;58554;52.006;5.926;2023-06-14T04:32:37;100816.41;;;17.82;38.62
70909;BME280;58554;52.006;5.926;2023-06-14T04:35:05;100817.38;;;17.80;38.55
70909;BME280;58554;52.006;5.926;2023-06-14T04:37:32;100819.22;;;17.80;38.73
70909;BME280;58554;52.006;5.926;2023-06-14T04:39:59;100822.03;;;17.78;38.66
70909;BME280;58554;52.006;5.926;2023-06-14T04:42:25;100822.03;;;17.78;38.82
70909;BME280;58554;52.006;5.926;2023-06-14T04:44:52;100827.38;;;17.78;38.90
70909;BME280;58554;52.006;5.926;2023-06-14T04:47:18;100823.81;;;17.78;38.91
70909;BME280;58554;52.006;5.926;2023-06-14T04:49:47;100835.25;;;17.80;38.92
70909;BME280;58554;52.006;5.926;2023-06-14T04:52:14;100821.78;;;17.82;39.05
70909;BME280;58554;52.006;5.926;2023-06-14T04:54:40;100829.78;;;17.82;39.10
70909;BME280;58554;52.006;5.926;2023-06-14T04:57:07;100844.00;;;17.82;39.20
70909;BME280;58554;52.006;5.926;2023-06-14T04:59:34;100836.81;;;17.83;39.17
70909;BME280;58554;52.006;5.926;2023-06-14T05:02:00;100833.91;;;17.86;39.17
70909;BME280;58554;52.006;5.926;2023-06-14T05:04:27;100834.44;;;17.89;39.23
70909;BME280;58554;52.006;5.926;2023-06-14T05:06:56;100834.31;;;17.91;39.23
70909;BME280;58554;52.006;5.926;2023-06-14T05:09:23;100839.44;;;17.94;39.27
70909;BME280;58554;52.006;5.926;2023-06-14T05:11:49;100834.06;;;17.94;39.29
70909;BME280;58554;52.006;5.926;2023-06-14T05:14:16;100836.03;;;17.92;39.07
70909;BME280;58554;52.006;5.926;2023-06-14T05:16:43;100837.84;;;17.91;39.52
70909;BME280;58554;52.006;5.926;2023-06-14T05:19:09;100841.81;;;17.97;39.42
70909;BME280;58554;52.006;5.926;2023-06-14T05:21:36;100843.38;;;17.99;39.47
70909;BME280;58554;52.006;5.926;2023-06-14T05:24:06;100839.72;;;18.00;39.42
70909;BME280;58554;52.006;5.926;2023-06-14T05:26:33;100841.41;;;18.01;39.30
70909;BME280;58554;52.006;5.926;2023-06-14T05:28:59;100842.41;;;18.00;39.39
70909;BME280;58554;52.006;5.926;2023-06-14T05:31:25;100845.91;;;18.01;39.44
70909;BME280;58554;52.006;5.926;2023-06-14T05:33:53;100842.28;;;18.02;39.24
70909;BME280;58554;52.006;5.926;2023-06-14T05:36:19;100853.53;;;18.06;39.57
70909;BME280;58554;52.006;5.926;2023-06-14T05:38:46;100852.41;;;18.08;39.30
70909;BME280;58554;52.006;5.926;2023-06-14T05:41:15;100855.69;;;18.12;39.32
70909;BME280;58554;52.006;5.926;2023-06-14T05:43:42;100860.06;;;18.13;39.54
70909;BME280;58554;52.006;5.926;2023-06-14T05:46:08;100862.44;;;18.16;39.33
70909;BME280;58554;52.006;5.926;2023-06-14T05:48:35;100863.28;;;18.16;39.36
70909;BME280;58554;52.006;5.926;2023-06-14T05:51:02;100865.72;;;18.19;39.65
70909;BME280;58554;52.006;5.926;2023-06-14T05:53:28;100864.59;;;18.22;39.64
70909;BME280;58554;52.006;5.926;2023-06-14T05:55:55;100858.69;;;18.28;39.47
70909;BME280;58554;52.006;5.926;2023-06-14T05:58:24;100860.25;;;18.31;39.73
70909;BME280;58554;52.006;5.926;2023-06-14T06:00:50;100874.66;;;18.39;39.44
70909;BME280;58554;52.006;5.926;2023-06-14T06:03:17;100873.84;;;18.49;39.28
70909;BME280;58554;52.006;5.926;2023-06-14T06:05:44;100883.03;;;18.66;39.60
70909;BME280;58554;52.006;5.926;2023-06-14T06:08:10;100885.94;;;18.93;39.13
70909;BME280;58554;52.006;5.926;2023-06-14T06:10:37;100884.84;;;19.25;39.10
70909;BME280;58554;52.006;5.926;2023-06-14T06:13:03;100881.41;;;19.72;38.86
70909;BME280;58554;52.006;5.926;2023-06-14T06:15:32;100884.34;;;20.26;37.77
70909;BME280;58554;52.006;5.926;2023-06-14T06:17:59;100887.59;;;20.57;37.67
70909;BME280;58554;52.006;5.926;2023-06-14T06:20:25;100888.06;;;20.70;37.51
70909;BME280;58554;52.006;5.926;2023-06-14T06:22:52;100892.25;;;20.82;37.65
70909;BME280;58554;52.006;5.926;2023-06-14T06:25:18;100894.03;;;20.92;37.83
70909;BME280;58554;52.006;5.926;2023-06-14T06:27:45;100892.28;;;21.00;37.34
70909;BME280;58554;52.006;5.926;2023-06-14T06:30:12;100896.03;;;21.08;37.17
70909;BME280;58554;52.006;5.926;2023-06-14T06:32:42;100896.78;;;21.18;37.45
70909;BME280;58554;52.006;5.926;2023-06-14T06:35:08;100896.59;;;21.29;37.27
70909;BME280;58554;52.006;5.926;2023-06-14T06:37:35;100899.88;;;21.41;37.05
70909;BME280;58554;52.006;5.926;2023-06-14T06:40:01;100904.16;;;21.52;36.84
70909;BME280;58554;52.006;5.926;2023-06-14T06:42:29;100901.72;;;21.58;36.98
70909;BME280;58554;52.006;5.926;2023-06-14T06:44:55;100902.28;;;21.70;36.93
70909;BME280;58554;52.006;5.926;2023-06-14T06:47:22;100899.03;;;21.84;36.83
70909;BME280;58554;52.006;5.926;2023-06-14T06:49:51;100895.22;;;21.95;36.47
70909;BME280;58554;52.006;5.926;2023-06-14T06:52:18;100906.59;;;22.07;36.36
70909;BME280;58554;52.006;5.926;2023-06-14T06:54:44;100903.81;;;22.17;36.23
70909;BME280;58554;52.006;5.926;2023-06-14T06:57:11;100913.75;;;22.24;36.08
70909;BME280;58554;52.006;5.926;2023-06-14T06:59:37;100912.63;;;22.35;35.77
70909;BME280;58554;52.006;5.926;2023-06-14T07:02:05;100915.72;;;22.49;35.71
70909;BME280;58554;52.006;5.926;2023-06-14T07:04:32;100922.50;;;22.61;35.94
70909;BME280;58554;52.006;5.926;2023-06-14T07:07:01;100930.81;;;22.76;35.77
70909;BME280;58554;52.006;5.926;2023-06-14T07:09:27;100922.44;;;22.87;35.73
70909;BME280;58554;52.006;5.926;2023-06-14T07:11:54;100925.84;;;22.97;35.14
70909;BME280;58554;52.006;5.926;2023-06-14T07:14:20;100922.84;;;23.09;35.43
70909;BME280;58554;52.006;5.926;2023-06-14T07:16:47;100934.31;;;23.19;35.29
70909;BME280;58554;52.006;5.926;2023-06-14T07:19:13;100928.06;;;23.27;34.98
70909;BME280;58554;52.006;5.926;2023-06-14T07:21:40;100929.94;;;23.34;34.53
70909;BME280;58554;52.006;5.926;2023-06-14T07:24:09;100931.47;;;23.45;34.32
70909;BME280;58554;52.006;5.926;2023-06-14T07:26:35;100935.03;;;23.54;34.72
70909;BME280;58554;52.006;5.926;2023-06-14T07:29:02;100936.88;;;23.61;34.50
70909;BME280;58554;52.006;5.926;2023-06-14T07:31:29;100935.19;;;23.69;34.51
70909;BME280;58554;52.006;5.926;2023-06-14T07:33:55;100939.75;;;23.76;34.26
70909;BME280;58554;52.006;5.926;2023-06-14T07:36:22;100935.53;;;23.82;34.28
70909;BME280;58554;52.006;5.926;2023-06-14T07:38:48;100936.03;;;23.94;33.81
70909;BME280;58554;52.006;5.926;2023-06-14T07:41:17;100939.19;;;24.05;33.70
70909;BME280;58554;52.006;5.926;2023-06-14T07:43:44;100941.03;;;24.13;33.73
70909;BME280;58554;52.006;5.926;2023-06-14T07:46:11;100941.34;;;24.18;33.42
70909;BME280;58554;52.006;5.926;2023-06-14T07:48:37;100939.69;;;24.26;33.27
70909;BME280;58554;52.006;5.926;2023-06-14T07:51:04;100935.94;;;24.35;33.18
70909;BME280;58554;52.006;5.926;2023-06-14T07:53:31;100938.97;;;24.40;33.31
70909;BME280;58554;52.006;5.926;2023-06-14T07:55:57;100946.19;;;24.48;32.93
70909;BME280;58554;52.006;5.926;2023-06-14T07:58:26;100942.63;;;24.55;32.91
70909;BME280;58554;52.006;5.926;2023-06-14T08:00:53;100949.00;;;24.62;32.64
70909;BME280;58554;52.006;5.926;2023-06-14T08:03:20;100945.59;;;24.69;32.56
70909;BME280;58554;52.006;5.926;2023-06-14T08:05:46;100942.00;;;24.76;32.40
70909;BME280;58554;52.006;5.926;2023-06-14T08:08:13;100948.75;;;24.80;32.42
70909;BME280;58554;52.006;5.926;2023-06-14T08:10:40;100944.66;;;24.84;31.85
70909;BME280;58554;52.006;5.926;2023-06-14T08:13:06;100946.53;;;24.92;32.14
70909;BME280;58554;52.006;5.926;2023-06-14T08:15:35;100944.13;;;24.97;31.86
70909;BME280;58554;52.006;5.926;2023-06-14T08:18:02;100942.44;;;24.96;31.38
70909;BME280;58554;52.006;5.926;2023-06-14T08:20:28;100945.81;;;24.98;31.72
70909;BME280;58554;52.006;5.926;2023-06-14T08:22:55;100938.38;;;25.00;31.78
70909;BME280;58554;52.006;5.926;2023-06-14T08:25:22;100942.19;;;25.06;32.03
70909;BME280;58554;52.006;5.926;2023-06-14T08:27:49;100932.34;;;25.13;31.89
70909;BME280;58554;52.006;5.926;2023-06-14T08:30:15;100943.31;;;25.20;31.83
70909;BME280;58554;52.006;5.926;2023-06-14T08:32:45;100937.53;;;25.23;31.29
70909;BME280;58554;52.006;5.926;2023-06-14T08:35:11;100942.97;;;25.23;31.17
70909;BME280;58554;52.006;5.926;2023-06-14T08:37:41;100950.53;;;25.28;31.05
70909;BME280;58554;52.006;5.926;2023-06-14T08:40:18;100943.34;;;25.35;30.63
70909;BME280;58554;52.006;5.926;2023-06-14T08:42:48;100944.69;;;25.39;30.71
70909;BME280;58554;52.006;5.926;2023-06-14T08:45:17;100943.28;;;25.43;30.95
70909;BME280;58554;52.006;5.926;2023-06-14T08:47:46;100940.03;;;25.48;30.87
70909;BME280;58554;52.006;5.926;2023-06-14T08:50:14;100936.59;;;25.54;30.98
70909;BME280;58554;52.006;5.926;2023-06-14T08:52:45;100939.00;;;25.57;30.73
70909;BME280;58554;52.006;5.926;2023-06-14T08:55:17;100937.97;;;25.58;30.57
70909;BME280;58554;52.006;5.926;2023-06-14T08:57:45;100944.03;;;25.60;30.91
70909;BME280;58554;52.006;5.926;2023-06-14T09:00:13;100939.66;;;25.59;30.65
70909;BME280;58554;52.006;5.926;2023-06-14T09:02:41;100939.44;;;25.60;30.55
70909;BME280;58554;52.006;5.926;2023-06-14T09:05:10;100939.09;;;25.63;30.39
70909;BME280;58554;52.006;5.926;2023-06-14T09:07:37;100939.94;;;25.64;30.01
70909;BME280;58554;52.006;5.926;2023-06-14T09:10:10;100933.50;;;25.65;30.47
70909;BME280;58554;52.006;5.926;2023-06-14T09:12:39;100937.88;;;25.66;30.17
70909;BME280;58554;52.006;5.926;2023-06-14T09:15:07;100940.41;;;25.68;29.99
70909;BME280;58554;52.006;5.926;2023-06-14T09:17:34;100926.03;;;25.67;30.20
70909;BME280;58554;52.006;5.926;2023-06-14T09:20:01;100935.66;;;25.70;30.04
70909;BME280;58554;52.006;5.926;2023-06-14T09:22:32;100933.63;;;25.72;30.09
70909;BME280;58554;52.006;5.926;2023-06-14T09:24:59;100933.13;;;25.68;30.26
70909;BME280;58554;52.006;5.926;2023-06-14T09:27:26;100941.63;;;25.65;30.20
70909;BME280;58554;52.006;5.926;2023-06-14T09:29:54;100943.84;;;25.61;30.06
70909;BME280;58554;52.006;5.926;2023-06-14T09:32:21;100946.44;;;25.55;30.08
70909;BME280;58554;52.006;5.926;2023-06-14T09:34:48;100953.56;;;25.48;30.46
70909;BME280;58554;52.006;5.926;2023-06-14T09:37:27;100950.28;;;25.37;29.99
70909;BME280;58554;52.006;5.926;2023-06-14T09:39:57;100947.44;;;25.31;30.16
70909;BME280;58554;52.006;5.926;2023-06-14T09:42:25;100953.41;;;25.26;30.17
70909;BME280;58554;52.006;5.926;2023-06-14T09:44:54;100950.03;;;25.24;30.12
70909;BME280;58554;52.006;5.926;2023-06-14T09:47:22;100955.06;;;25.27;30.04
70909;BME280;58554;52.006;5.926;2023-06-14T09:49:51;100950.31;;;25.29;29.76
70909;BME280;58554;52.006;5.926;2023-06-14T09:52:19;100949.03;;;25.25;29.48
70909;BME280;58554;52.006;5.926;2023-06-14T09:54:48;100945.50;;;25.16;29.39
70909;BME280;58554;52.006;5.926;2023-06-14T09:57:21;100936.06;;;25.12;29.53
70909;BME280;58554;52.006;5.926;2023-06-14T09:59:52;100941.03;;;25.09;29.75
70909;BME280;58554;52.006;5.926;2023-06-14T10:02:25;100943.00;;;25.15;30.12
70909;BME280;58554;52.006;5.926;2023-06-14T10:04:58;100942.28;;;25.21;30.18
70909;BME280;58554;52.006;5.926;2023-06-14T10:07:32;100935.50;;;25.25;30.33
70909;BME280;58554;52.006;5.926;2023-06-14T10:10:06;100930.72;;;25.27;29.93
70909;BME280;58554;52.006;5.926;2023-06-14T10:12:36;100933.56;;;25.34;29.95
70909;BME280;58554;52.006;5.926;2023-06-14T10:15:05;100939.44;;;25.37;30.08
70909;BME280;58554;52.006;5.926;2023-06-14T10:17:41;100933.19;;;25.37;29.80
70909;BME280;58554;52.006;5.926;2023-06-14T10:20:21;100932.03;;;25.31;29.98
70909;BME280;58554;52.006;5.926;2023-06-14T10:23:00;100940.16;;;25.31;29.99
70909;BME280;58554;52.006;5.926;2023-06-14T10:25:31;100928.50;;;25.31;29.92
70909;BME280;58554;52.006;5.926;2023-06-14T10:28:14;100927.28;;;25.33;29.82
70909;BME280;58554;52.006;5.926;2023-06-14T10:31:07;100925.63;;;25.32;29.77
70909;BME280;58554;52.006;5.926;2023-06-14T10:33:36;100930.00;;;25.33;30.17
70909;BME280;58554;52.006;5.926;2023-06-14T10:36:09;100932.53;;;25.35;29.75
70909;BME280;58554;52.006;5.926;2023-06-14T10:38:57;100921.22;;;25.31;29.58
70909;BME280;58554;52.006;5.926;2023-06-14T10:41:26;100934.28;;;25.28;29.42
70909;BME280;58554;52.006;5.926;2023-06-14T10:44:10;100926.34;;;25.26;29.37
70909;BME280;58554;52.006;5.926;2023-06-14T10:46:59;100935.13;;;25.28;29.49
70909;BME280;58554;52.006;5.926;2023-06-14T10:49:40;100926.63;;;25.31;29.45
70909;BME280;58554;52.006;5.926;2023-06-14T10:52:09;100933.56;;;25.34;29.27
70909;BME280;58554;52.006;5.926;2023-06-14T10:54:37;100934.94;;;25.30;29.50
70909;BME280;58554;52.006;5.926;2023-06-14T10:57:06;100932.25;;;25.30;29.49
70909;BME280;58554;52.006;5.926;2023-06-14T10:59:35;100928.50;;;25.31;29.60
70909;BME280;58554;52.006;5.926;2023-06-14T11:02:36;100930.19;;;25.32;28.83
70909;BME280;58554;52.006;5.926;2023-06-14T11:05:26;100933.91;;;25.31;29.50
70909;BME280;58554;52.006;5.926;2023-06-14T11:08:05;100938.13;;;25.33;29.34
70909;BME280;58554;52.006;5.926;2023-06-14T11:10:44;100931.69;;;25.34;29.03
70909;BME280;58554;52.006;5.926;2023-06-14T11:13:11;100932.53;;;25.35;29.20
70909;BME280;58554;52.006;5.926;2023-06-14T11:15:47;100941.97;;;25.39;29.38
70909;BME280;58554;52.006;5.926;2023-06-14T11:18:14;100937.06;;;25.42;29.29
70909;BME280;58554;52.006;5.926;2023-06-14T11:20:41;100928.75;;;25.44;28.99
70909;BME280;58554;52.006;5.926;2023-06-14T11:23:08;100931.25;;;25.45;29.08
70909;BME280;58554;52.006;5.926;2023-06-14T11:25:34;100934.16;;;25.44;28.80
70909;BME280;58554;52.006;5.926;2023-06-14T11:28:01;100936.72;;;25.37;28.97
70909;BME280;58554;52.006;5.926;2023-06-14T11:30:27;100934.41;;;25.34;28.90
70909;BME280;58554;52.006;5.926;2023-06-14T11:32:57;100927.28;;;25.33;28.97
70909;BME280;58554;52.006;5.926;2023-06-14T11:35:24;100934.22;;;25.36;29.12
70909;BME280;58554;52.006;5.926;2023-06-14T11:37:53;100939.25;;;25.39;29.26
70909;BME280;58554;52.006;5.926;2023-06-14T11:40:19;100923.69;;;25.41;29.37
70909;BME280;58554;52.006;5.926;2023-06-14T11:42:46;100931.47;;;25.44;29.21
70909;BME280;58554;52.006;5.926;2023-06-14T11:45:12;100925.50;;;25.49;29.40
70909;BME280;58554;52.006;5.926;2023-06-14T11:47:39;100943.38;;;25.58;29.38
70909;BME280;58554;52.006;5.926;2023-06-14T11:50:09;100937.22;;;25.64;29.77
70909;BME280;58554;52.006;5.926;2023-06-14T11:52:36;100933.78;;;25.70;29.34
70909;BME280;58554;52.006;5.926;2023-06-14T11:55:04;100936.81;;;25.75;29.26
70909;BME280;58554;52.006;5.926;2023-06-14T11:57:34;100940.44;;;25.82;29.30
70909;BME280;58554;52.006;5.926;2023-06-14T12:00:03;100939.72;;;25.89;29.17
70909;BME280;58554;52.006;5.926;2023-06-14T12:02:31;100943.00;;;25.99;29.54
70909;BME280;58554;52.006;5.926;2023-06-14T12:05:04;100937.09;;;26.10;28.87
70909;BME280;58554;52.006;5.926;2023-06-14T12:07:33;100946.50;;;26.22;28.92
70909;BME280;58554;52.006;5.926;2023-06-14T12:10:04;100941.63;;;26.33;28.98
70909;BME280;58554;52.006;5.926;2023-06-14T12:12:35;100937.16;;;26.40;28.52
70909;BME280;58554;52.006;5.926;2023-06-14T12:15:04;100938.47;;;26.44;28.64
70909;BME280;58554;52.006;5.926;2023-06-14T12:17:32;100936.66;;;26.51;28.38
70909;BME280;58554;52.006;5.926;2023-06-14T12:20:05;100931.31;;;26.58;28.05
70909;BME280;58554;52.006;5.926;2023-06-14T12:22:35;100940.75;;;26.62;28.57
70909;BME280;58554;52.006;5.926;2023-06-14T12:25:01;100941.50;;;26.71;28.08
70909;BME280;58554;52.006;5.926;2023-06-14T12:27:28;100931.13;;;26.74;28.21
70909;BME280;58554;52.006;5.926;2023-06-14T12:30:01;100928.22;;;26.76;28.25
70909;BME280;58554;52.006;5.926;2023-06-14T12:32:29;100929.88;;;26.77;28.29
70909;BME280;58554;52.006;5.926;2023-06-14T12:34:55;100938.13;;;26.83;28.10
70909;BME280;58554;52.006;5.926;2023-06-14T12:37:22;100940.72;;;26.92;28.31
70909;BME280;58554;52.006;5.926;2023-06-14T12:39:51;100938.09;;;26.98;28.31
70909;BME280;58554;52.006;5.926;2023-06-14T12:42:17;100930.69;;;27.07;28.38
70909;BME280;58554;52.006;5.926;2023-06-14T12:44:44;100925.31;;;27.14;27.98
70909;BME280;58554;52.006;5.926;2023-06-14T12:47:10;100925.19;;;27.22;28.08
70909;BME280;58554;52.006;5.926;2023-06-14T12:49:37;100924.00;;;27.31;28.10
70909;BME280;58554;52.006;5.926;2023-06-14T12:52:05;100931.00;;;27.40;28.33
70909;BME280;58554;52.006;5.926;2023-06-14T12:54:32;100936.31;;;27.49;28.25
70909;BME280;58554;52.006;5.926;2023-06-14T12:57:01;100931.59;;;27.57;27.94